sensor_id;sensor_type;location;lat;lon;timestamp;P1;durP1;ratioP1;P2;durP2;ratioP2
5393;SDS011;2720;52.396;10.064;2022-10-04T00:02:05;6.27;;;2.33;;
5393;SDS011;2720;52.396;10.064;2022-10-04T00:04:52;12.17;;;2.60;;
5393;SDS011;2720;52.396;10.064;2022-10-04T00:07:24;9.47;;;3.30;;
5393;SDS011;2720;52.396;10.064;2022-10-04T00:09:55;8.83;;;2.47;;
5393;SDS011;2720;52.396;10.064;2022-10-04T00:12:25;11.03;;;2.30;;
5393;SDS011;2720;52.396;10.064;2022-10-04T00:14:56;9.83;;;2.30;;
5393;SDS011;2720;52.396;10.064;2022-10-04T00:17:26;5.20;;;2.23;;
5393;SDS011;2720;52.396;10.064;2022-10-04T00:19:56;4.73;;;3.70;;
5393;SDS011;2720;52.396;10.064;2022-10-04T00:22:24;9.30;;;2.13;;
5393;SDS011;2720;52.396;10.064;2022-10-04T00:30:42;8.33;;;2.60;;
5393;SDS011;2720;52.396;10.064;2022-10-04T00:33:09;8.47;;;2.63;;
5393;SDS011;2720;52.396;10.064;2022-10-04T00:35:47;10.40;;;2.80;;
5393;SDS011;2720;52.396;10.064;2022-10-04T00:38:15;10.40;;;2.77;;
5393;SDS011;2720;52.396;10.064;2022-10-04T00:40:53;8.87;;;2.70;;
5393;SDS011;2720;52.396;10.064;2022-10-04T00:43:24;7.70;;;2.50;;
5393;SDS011;2720;52.396;10.064;2022-10-04T00:45:58;7.00;;;2.23;;
5393;SDS011;2720;52.396;10.064;2022-10-04T00:48:32;3.10;;;1.70;;
5393;SDS011;2720;52.396;10.064;2022-10-04T00:51:09;8.30;;;2.60;;
5393;SDS011;2720;52.396;10.064;2022-10-04T00:53:53;5.00;;;2.97;;
5393;SDS011;2720;52.396;10.064;2022-10-04T00:56:28;5.70;;;2.70;;
5393;SDS011;2720;52.396;10.064;2022-10-04T01:01:53;8.60;;;2.23;;
5393;SDS011;2720;52.396;10.064;2022-10-04T01:04:26;6.90;;;2.40;;
5393;SDS011;2720;52.396;10.064;2022-10-04T01:06:58;7.30;;;3.50;;
5393;SDS011;2720;52.396;10.064;2022-10-04T01:09:28;4.70;;;2.23;;
5393;SDS011;2720;52.396;10.064;2022-10-04T01:11:58;9.83;;;2.47;;
5393;SDS011;2720;52.396;10.064;2022-10-04T01:14:33;11.37;;;3.00;;
5393;SDS011;2720;52.396;10.064;2022-10-04T01:17:11;5.23;;;2.23;;
5393;SDS011;2720;52.396;10.064;2022-10-04T01:19:38;2.10;;;1.73;;
5393;SDS011;2720;52.396;10.064;2022-10-04T01:22:28;4.57;;;2.40;;
5393;SDS011;2720;52.396;10.064;2022-10-04T01:24:59;8.40;;;1.83;;
5393;SDS011;2720;52.396;10.064;2022-10-04T01:27:31;12.40;;;3.20;;
5393;SDS011;2720;52.396;10.064;2022-10-04T01:30:06;5.03;;;2.63;;
5393;SDS011;2720;52.396;10.064;2022-10-04T01:32:36;5.33;;;1.73;;
5393;SDS011;2720;52.396;10.064;2022-10-04T01:35:05;6.60;;;3.00;;
5393;SDS011;2720;52.396;10.064;2022-10-04T01:37:34;6.33;;;3.20;;
5393;SDS011;2720;52.396;10.064;2022-10-04T01:40:01;7.93;;;1.83;;
5393;SDS011;2720;52.396;10.064;2022-10-04T01:42:30;5.70;;;2.17;;
5393;SDS011;2720;52.396;10.064;2022-10-04T01:45:02;13.47;;;2.30;;
5393;SDS011;2720;52.396;10.064;2022-10-04T01:47:36;4.80;;;2.20;;
5393;SDS011;2720;52.396;10.064;2022-10-04T01:50:08;5.47;;;2.37;;
5393;SDS011;2720;52.396;10.064;2022-10-04T01:52:40;24.93;;;3.20;;
5393;SDS011;2720;52.396;10.064;2022-10-04T01:55:11;10.23;;;2.33;;
5393;SDS011;2720;52.396;10.064;2022-10-04T01:57:41;17.50;;;2.83;;
5393;SDS011;2720;52.396;10.064;2022-10-04T02:00:13;8.77;;;3.27;;
5393;SDS011;2720;52.396;10.064;2022-10-04T02:02:42;9.37;;;2.73;;
5393;SDS011;2720;52.396;10.064;2022-10-04T02:05:16;5.53;;;2.60;;
5393;SDS011;2720;52.396;10.064;2022-10-04T02:07:47;4.90;;;3.13;;
5393;SDS011;2720;52.396;10.064;2022-10-04T02:10:16;9.40;;;3.67;;
5393;SDS011;2720;52.396;10.064;2022-10-04T02:12:47;8.37;;;2.50;;
5393;SDS011;2720;52.396;10.064;2022-10-04T02:15:17;10.13;;;2.80;;
5393;SDS011;2720;52.396;10.064;2022-10-04T02:17:46;5.40;;;2.83;;
5393;SDS011;2720;52.396;10.064;2022-10-04T02:20:14;8.07;;;3.50;;
5393;SDS011;2720;52.396;10.064;2022-10-04T02:22:44;6.33;;;2.47;;
5393;SDS011;2720;52.396;10.064;2022-10-04T02:25:16;8.00;;;3.13;;
5393;SDS011;2720;52.396;10.064;2022-10-04T02:27:44;8.50;;;3.13;;
5393;SDS011;2720;52.396;10.064;2022-10-04T02:30:12;5.90;;;2.57;;
5393;SDS011;2720;52.396;10.064;2022-10-04T02:32:40;11.43;;;3.00;;
5393;SDS011;2720;52.396;10.064;2022-10-04T02:35:23;7.10;;;2.60;;
5393;SDS011;2720;52.396;10.064;2022-10-04T02:37:54;3.90;;;2.83;;
5393;SDS011;2720;52.396;10.064;2022-10-04T02:40:29;9.27;;;3.27;;
5393;SDS011;2720;52.396;10.064;2022-10-04T02:43:02;5.20;;;2.60;;
5393;SDS011;2720;52.396;10.064;2022-10-04T02:45:36;8.80;;;3.00;;
5393;SDS011;2720;52.396;10.064;2022-10-04T02:48:12;4.70;;;2.77;;
5393;SDS011;2720;52.396;10.064;2022-10-04T02:50:52;9.27;;;3.00;;
5393;SDS011;2720;52.396;10.064;2022-10-04T02:53:22;8.07;;;2.43;;
5393;SDS011;2720;52.396;10.064;2022-10-04T02:55:53;4.90;;;1.87;;
5393;SDS011;2720;52.396;10.064;2022-10-04T02:58:22;12.13;;;3.90;;
5393;SDS011;2720;52.396;10.064;2022-10-04T03:00:51;10.27;;;3.20;;
5393;SDS011;2720;52.396;10.064;2022-10-04T03:03:23;6.83;;;2.40;;
5393;SDS011;2720;52.396;10.064;2022-10-04T03:05:54;12.63;;;2.80;;
5393;SDS011;2720;52.396;10.064;2022-10-04T03:08:24;11.37;;;2.50;;
5393;SDS011;2720;52.396;10.064;2022-10-04T03:10:54;8.20;;;2.90;;
5393;SDS011;2720;52.396;10.064;2022-10-04T03:13:23;10.40;;;3.13;;
5393;SDS011;2720;52.396;10.064;2022-10-04T03:15:51;11.20;;;2.93;;
5393;SDS011;2720;52.396;10.064;2022-10-04T03:18:18;7.37;;;3.10;;
5393;SDS011;2720;52.396;10.064;2022-10-04T03:20:47;4.47;;;3.10;;
5393;SDS011;2720;52.396;10.064;2022-10-04T03:23:14;10.53;;;3.00;;
5393;SDS011;2720;52.396;10.064;2022-10-04T03:25:46;9.40;;;2.93;;
5393;SDS011;2720;52.396;10.064;2022-10-04T03:28:17;11.63;;;3.97;;
5393;SDS011;2720;52.396;10.064;2022-10-04T03:30:45;17.87;;;3.90;;
5393;SDS011;2720;52.396;10.064;2022-10-04T03:33:17;2.57;;;2.37;;
5393;SDS011;2720;52.396;10.064;2022-10-04T03:35:48;12.67;;;3.30;;
5393;SDS011;2720;52.396;10.064;2022-10-04T03:38:18;3.07;;;2.03;;
5393;SDS011;2720;52.396;10.064;2022-10-04T03:40:48;11.03;;;2.90;;
5393;SDS011;2720;52.396;10.064;2022-10-04T03:43:21;6.80;;;2.90;;
5393;SDS011;2720;52.396;10.064;2022-10-04T03:45:50;9.67;;;2.50;;
5393;SDS011;2720;52.396;10.064;2022-10-04T03:48:21;8.20;;;2.50;;
5393;SDS011;2720;52.396;10.064;2022-10-04T03:50:54;7.97;;;3.17;;
5393;SDS011;2720;52.396;10.064;2022-10-04T03:53:26;5.67;;;2.57;;
5393;SDS011;2720;52.396;10.064;2022-10-04T03:55:56;9.70;;;2.37;;
5393;SDS011;2720;52.396;10.064;2022-10-04T03:58:25;9.77;;;2.80;;
5393;SDS011;2720;52.396;10.064;2022-10-04T04:00:59;10.53;;;2.33;;
5393;SDS011;2720;52.396;10.064;2022-10-04T04:03:35;6.47;;;2.70;;
5393;SDS011;2720;52.396;10.064;2022-10-04T04:06:13;9.13;;;2.87;;
5393;SDS011;2720;52.396;10.064;2022-10-04T04:08:42;15.77;;;3.10;;
5393;SDS011;2720;52.396;10.064;2022-10-04T04:11:13;6.97;;;2.90;;
5393;SDS011;2720;52.396;10.064;2022-10-04T04:13:46;7.90;;;3.13;;
5393;SDS011;2720;52.396;10.064;2022-10-04T04:16:18;6.77;;;2.20;;
5393;SDS011;2720;52.396;10.064;2022-10-04T04:18:47;5.87;;;2.47;;
5393;SDS011;2720;52.396;10.064;2022-10-04T04:21:16;4.20;;;2.20;;
5393;SDS011;2720;52.396;10.064;2022-10-04T04:23:47;9.80;;;3.80;;
5393;SDS011;2720;52.396;10.064;2022-10-04T04:26:20;6.83;;;3.33;;
5393;SDS011;2720;52.396;10.064;2022-10-04T04:28:54;10.33;;;3.27;;
5393;SDS011;2720;52.396;10.064;2022-10-04T04:31:28;12.67;;;2.53;;
5393;SDS011;2720;52.396;10.064;2022-10-04T04:33:58;4.97;;;3.10;;
5393;SDS011;2720;52.396;10.064;2022-10-04T04:36:27;3.57;;;3.30;;
5393;SDS011;2720;52.396;10.064;2022-10-04T04:39:05;6.80;;;3.03;;
5393;SDS011;2720;52.396;10.064;2022-10-04T04:41:50;16.80;;;3.13;;
5393;SDS011;2720;52.396;10.064;2022-10-04T04:44:19;6.33;;;2.27;;
5393;SDS011;2720;52.396;10.064;2022-10-04T04:46:46;12.13;;;3.80;;
5393;SDS011;2720;52.396;10.064;2022-10-04T04:49:14;13.90;;;5.20;;
5393;SDS011;2720;52.396;10.064;2022-10-04T04:51:45;11.73;;;4.60;;
5393;SDS011;2720;52.396;10.064;2022-10-04T04:54:15;9.07;;;3.00;;
5393;SDS011;2720;52.396;10.064;2022-10-04T04:56:46;9.00;;;2.80;;
5393;SDS011;2720;52.396;10.064;2022-10-04T04:59:18;14.40;;;3.70;;
5393;SDS011;2720;52.396;10.064;2022-10-04T05:01:47;7.40;;;3.60;;
5393;SDS011;2720;52.396;10.064;2022-10-04T05:04:16;9.53;;;3.30;;
5393;SDS011;2720;52.396;10.064;2022-10-04T05:06:46;5.43;;;3.00;;
5393;SDS011;2720;52.396;10.064;2022-10-04T05:09:21;13.60;;;3.50;;
5393;SDS011;2720;52.396;10.064;2022-10-04T05:11:49;9.37;;;2.93;;
5393;SDS011;2720;52.396;10.064;2022-10-04T05:14:20;12.23;;;3.60;;
5393;SDS011;2720;52.396;10.064;2022-10-04T05:16:48;9.43;;;3.73;;
5393;SDS011;2720;52.396;10.064;2022-10-04T05:19:17;9.13;;;4.30;;
5393;SDS011;2720;52.396;10.064;2022-10-04T05:21:47;9.23;;;4.10;;
5393;SDS011;2720;52.396;10.064;2022-10-04T05:24:20;10.50;;;4.13;;
5393;SDS011;2720;52.396;10.064;2022-10-04T05:26:49;12.53;;;4.80;;
5393;SDS011;2720;52.396;10.064;2022-10-04T05:29:20;16.80;;;5.40;;
5393;SDS011;2720;52.396;10.064;2022-10-04T05:31:52;10.83;;;4.73;;
5393;SDS011;2720;52.396;10.064;2022-10-04T05:34:27;7.17;;;4.03;;
5393;SDS011;2720;52.396;10.064;2022-10-04T05:37:04;7.47;;;3.20;;
5393;SDS011;2720;52.396;10.064;2022-10-04T05:39:49;11.13;;;4.70;;
5393;SDS011;2720;52.396;10.064;2022-10-04T05:42:27;8.60;;;2.90;;
5393;SDS011;2720;52.396;10.064;2022-10-04T05:45:10;10.07;;;3.60;;
5393;SDS011;2720;52.396;10.064;2022-10-04T05:47:41;6.33;;;2.87;;
5393;SDS011;2720;52.396;10.064;2022-10-04T05:50:13;8.53;;;2.60;;
5393;SDS011;2720;52.396;10.064;2022-10-04T05:52:46;18.73;;;2.80;;
5393;SDS011;2720;52.396;10.064;2022-10-04T05:55:16;7.40;;;3.03;;
5393;SDS011;2720;52.396;10.064;2022-10-04T05:57:55;9.27;;;2.40;;
5393;SDS011;2720;52.396;10.064;2022-10-04T06:00:48;9.77;;;3.00;;
5393;SDS011;2720;52.396;10.064;2022-10-04T06:03:34;9.03;;;4.47;;
5393;SDS011;2720;52.396;10.064;2022-10-04T06:06:11;11.73;;;2.90;;
5393;SDS011;2720;52.396;10.064;2022-10-04T06:08:47;8.27;;;2.87;;
5393;SDS011;2720;52.396;10.064;2022-10-04T06:11:29;9.13;;;3.73;;
5393;SDS011;2720;52.396;10.064;2022-10-04T06:20:12;11.40;;;2.77;;
5393;SDS011;2720;52.396;10.064;2022-10-04T06:22:53;6.77;;;3.37;;
5393;SDS011;2720;52.396;10.064;2022-10-04T06:25:24;8.47;;;3.57;;
5393;SDS011;2720;52.396;10.064;2022-10-04T06:27:55;6.43;;;2.80;;
5393;SDS011;2720;52.396;10.064;2022-10-04T06:30:33;13.80;;;2.80;;
5393;SDS011;2720;52.396;10.064;2022-10-04T06:33:21;3.33;;;2.10;;
5393;SDS011;2720;52.396;10.064;2022-10-04T06:36:14;8.93;;;2.23;;
5393;SDS011;2720;52.396;10.064;2022-10-04T06:39:03;9.83;;;2.40;;
5393;SDS011;2720;52.396;10.064;2022-10-04T06:42:00;2.47;;;1.90;;
5393;SDS011;2720;52.396;10.064;2022-10-04T06:47:34;8.23;;;2.30;;
5393;SDS011;2720;52.396;10.064;2022-10-04T06:50:17;7.97;;;2.63;;
5393;SDS011;2720;52.396;10.064;2022-10-04T06:52:54;6.73;;;2.53;;
5393;SDS011;2720;52.396;10.064;2022-10-04T06:55:52;13.53;;;2.13;;
5393;SDS011;2720;52.396;10.064;2022-10-04T06:58:37;7.30;;;2.90;;
5393;SDS011;2720;52.396;10.064;2022-10-04T07:01:21;9.47;;;2.33;;
5393;SDS011;2720;52.396;10.064;2022-10-04T07:03:53;8.27;;;2.67;;
5393;SDS011;2720;52.396;10.064;2022-10-04T07:06:26;6.60;;;2.70;;
5393;SDS011;2720;52.396;10.064;2022-10-04T07:08:56;9.93;;;2.77;;
5393;SDS011;2720;52.396;10.064;2022-10-04T07:11:30;7.70;;;2.70;;
5393;SDS011;2720;52.396;10.064;2022-10-04T07:14:09;11.97;;;2.70;;
5393;SDS011;2720;52.396;10.064;2022-10-04T07:16:42;4.73;;;2.73;;
5393;SDS011;2720;52.396;10.064;2022-10-04T07:19:21;6.30;;;2.60;;
5393;SDS011;2720;52.396;10.064;2022-10-04T07:21:57;13.50;;;3.10;;
5393;SDS011;2720;52.396;10.064;2022-10-04T07:24:32;7.33;;;2.43;;
5393;SDS011;2720;52.396;10.064;2022-10-04T07:27:09;4.93;;;2.33;;
5393;SDS011;2720;52.396;10.064;2022-10-04T07:29:40;18.23;;;3.20;;
5393;SDS011;2720;52.396;10.064;2022-10-04T07:32:11;9.60;;;3.10;;
5393;SDS011;2720;52.396;10.064;2022-10-04T07:34:45;10.23;;;3.73;;
5393;SDS011;2720;52.396;10.064;2022-10-04T07:37:19;8.63;;;2.83;;
5393;SDS011;2720;52.396;10.064;2022-10-04T07:39:49;5.93;;;2.80;;
5393;SDS011;2720;52.396;10.064;2022-10-04T07:42:24;15.43;;;2.83;;
5393;SDS011;2720;52.396;10.064;2022-10-04T07:44:58;10.63;;;3.57;;
5393;SDS011;2720;52.396;10.064;2022-10-04T07:47:38;9.43;;;2.67;;
5393;SDS011;2720;52.396;10.064;2022-10-04T07:50:22;6.23;;;3.60;;
5393;SDS011;2720;52.396;10.064;2022-10-04T07:52:52;20.00;;;4.23;;
5393;SDS011;2720;52.396;10.064;2022-10-04T07:55:27;10.03;;;3.27;;
5393;SDS011;2720;52.396;10.064;2022-10-04T07:58:05;9.90;;;4.27;;
5393;SDS011;2720;52.396;10.064;2022-10-04T08:00:43;12.90;;;5.17;;
5393;SDS011;2720;52.396;10.064;2022-10-04T08:03:26;13.80;;;4.60;;
5393;SDS011;2720;52.396;10.064;2022-10-04T08:06:06;9.33;;;3.47;;
5393;SDS011;2720;52.396;10.064;2022-10-04T08:11:52;14.83;;;4.07;;
5393;SDS011;2720;52.396;10.064;2022-10-04T08:14:29;15.07;;;4.23;;
5393;SDS011;2720;52.396;10.064;2022-10-04T08:17:09;10.90;;;3.23;;
5393;SDS011;2720;52.396;10.064;2022-10-04T08:19:44;19.47;;;4.43;;
5393;SDS011;2720;52.396;10.064;2022-10-04T08:22:26;8.90;;;3.40;;
5393;SDS011;2720;52.396;10.064;2022-10-04T08:25:07;8.27;;;3.70;;
5393;SDS011;2720;52.396;10.064;2022-10-04T08:27:52;16.43;;;3.67;;
5393;SDS011;2720;52.396;10.064;2022-10-04T08:30:57;10.90;;;3.17;;
5393;SDS011;2720;52.396;10.064;2022-10-04T08:33:52;20.20;;;3.90;;
5393;SDS011;2720;52.396;10.064;2022-10-04T08:36:37;4.80;;;3.30;;
5393;SDS011;2720;52.396;10.064;2022-10-04T08:39:27;7.63;;;3.30;;
5393;SDS011;2720;52.396;10.064;2022-10-04T08:42:31;8.73;;;4.03;;
5393;SDS011;2720;52.396;10.064;2022-10-04T08:57:49;10.97;;;3.43;;
5393;SDS011;2720;52.396;10.064;2022-10-04T09:00:55;11.30;;;4.80;;
5393;SDS011;2720;52.396;10.064;2022-10-04T09:03:44;10.07;;;3.33;;
5393;SDS011;2720;52.396;10.064;2022-10-04T09:06:43;8.77;;;3.10;;
5393;SDS011;2720;52.396;10.064;2022-10-04T09:09:46;9.70;;;4.03;;
5393;SDS011;2720;52.396;10.064;2022-10-04T09:12:46;6.47;;;2.97;;
5393;SDS011;2720;52.396;10.064;2022-10-04T09:15:28;7.00;;;3.70;;
5393;SDS011;2720;52.396;10.064;2022-10-04T09:18:20;15.97;;;3.50;;
5393;SDS011;2720;52.396;10.064;2022-10-04T09:20:55;5.50;;;3.30;;
5393;SDS011;2720;52.396;10.064;2022-10-04T09:26:32;4.97;;;2.70;;
5393;SDS011;2720;52.396;10.064;2022-10-04T09:29:13;5.60;;;2.60;;
5393;SDS011;2720;52.396;10.064;2022-10-04T09:32:29;11.90;;;3.70;;
5393;SDS011;2720;52.396;10.064;2022-10-04T09:35:28;9.73;;;3.77;;
5393;SDS011;2720;52.396;10.064;2022-10-04T09:38:30;11.23;;;4.17;;
5393;SDS011;2720;52.396;10.064;2022-10-04T09:44:20;5.00;;;2.60;;
5393;SDS011;2720;52.396;10.064;2022-10-04T09:47:20;7.83;;;2.80;;
5393;SDS011;2720;52.396;10.064;2022-10-04T09:50:24;7.00;;;2.70;;
5393;SDS011;2720;52.396;10.064;2022-10-04T09:53:15;11.27;;;3.63;;
5393;SDS011;2720;52.396;10.064;2022-10-04T09:56:02;11.83;;;2.83;;
5393;SDS011;2720;52.396;10.064;2022-10-04T09:58:51;16.80;;;3.80;;
5393;SDS011;2720;52.396;10.064;2022-10-04T10:01:38;9.80;;;3.30;;
5393;SDS011;2720;52.396;10.064;2022-10-04T10:04:25;14.00;;;2.60;;
5393;SDS011;2720;52.396;10.064;2022-10-04T10:07:03;12.80;;;3.47;;
5393;SDS011;2720;52.396;10.064;2022-10-04T10:09:44;13.60;;;3.27;;
5393;SDS011;2720;52.396;10.064;2022-10-04T10:15:52;13.83;;;3.33;;
5393;SDS011;2720;52.396;10.064;2022-10-04T10:18:25;7.50;;;2.93;;
5393;SDS011;2720;52.396;10.064;2022-10-04T10:21:13;9.73;;;2.20;;
5393;SDS011;2720;52.396;10.064;2022-10-04T10:26:56;9.97;;;2.73;;
5393;SDS011;2720;52.396;10.064;2022-10-04T10:29:39;12.90;;;2.60;;
5393;SDS011;2720;52.396;10.064;2022-10-04T10:32:37;10.90;;;2.50;;
5393;SDS011;2720;52.396;10.064;2022-10-04T10:35:36;16.90;;;2.40;;
5393;SDS011;2720;52.396;10.064;2022-10-04T10:38:18;13.10;;;3.50;;
5393;SDS011;2720;52.396;10.064;2022-10-04T10:47:05;11.23;;;3.20;;
5393;SDS011;2720;52.396;10.064;2022-10-04T10:49:51;5.53;;;3.10;;
5393;SDS011;2720;52.396;10.064;2022-10-04T10:52:47;7.23;;;2.63;;
5393;SDS011;2720;52.396;10.064;2022-10-04T10:56:05;7.60;;;3.27;;
5393;SDS011;2720;52.396;10.064;2022-10-04T11:01:58;7.73;;;2.33;;
5393;SDS011;2720;52.396;10.064;2022-10-04T11:04:51;7.13;;;2.20;;
5393;SDS011;2720;52.396;10.064;2022-10-04T11:13:41;4.80;;;1.43;;
5393;SDS011;2720;52.396;10.064;2022-10-04T11:16:27;4.83;;;1.70;;
5393;SDS011;2720;52.396;10.064;2022-10-04T11:19:40;4.80;;;1.70;;
5393;SDS011;2720;52.396;10.064;2022-10-04T11:22:44;4.13;;;1.60;;
5393;SDS011;2720;52.396;10.064;2022-10-04T11:25:36;12.20;;;2.30;;
5393;SDS011;2720;52.396;10.064;2022-10-04T11:28:19;6.77;;;2.10;;
5393;SDS011;2720;52.396;10.064;2022-10-04T11:33:59;7.20;;;1.67;;
5393;SDS011;2720;52.396;10.064;2022-10-04T11:37:01;3.40;;;1.47;;
5393;SDS011;2720;52.396;10.064;2022-10-04T11:39:50;7.13;;;2.47;;
5393;SDS011;2720;52.396;10.064;2022-10-04T11:42:35;8.00;;;2.20;;
5393;SDS011;2720;52.396;10.064;2022-10-04T11:45:35;3.63;;;1.50;;
5393;SDS011;2720;52.396;10.064;2022-10-04T11:48:20;3.50;;;1.67;;
5393;SDS011;2720;52.396;10.064;2022-10-04T11:54:13;4.10;;;1.37;;
5393;SDS011;2720;52.396;10.064;2022-10-04T11:57:20;1.80;;;1.53;;
5393;SDS011;2720;52.396;10.064;2022-10-04T12:00:00;6.07;;;1.53;;
5393;SDS011;2720;52.396;10.064;2022-10-04T12:02:41;6.73;;;2.30;;
5393;SDS011;2720;52.396;10.064;2022-10-04T12:08:36;3.60;;;1.30;;
5393;SDS011;2720;52.396;10.064;2022-10-04T12:11:26;5.20;;;2.27;;
5393;SDS011;2720;52.396;10.064;2022-10-04T12:14:25;7.30;;;2.70;;
5393;SDS011;2720;52.396;10.064;2022-10-04T12:17:23;4.87;;;1.70;;
5393;SDS011;2720;52.396;10.064;2022-10-04T12:20:20;4.60;;;1.70;;
5393;SDS011;2720;52.396;10.064;2022-10-04T12:23:19;4.00;;;1.57;;
5393;SDS011;2720;52.396;10.064;2022-10-04T12:26:20;1.93;;;1.27;;
5393;SDS011;2720;52.396;10.064;2022-10-04T12:29:03;2.27;;;1.40;;
5393;SDS011;2720;52.396;10.064;2022-10-04T12:32:03;7.80;;;1.63;;
5393;SDS011;2720;52.396;10.064;2022-10-04T12:34:37;3.43;;;1.50;;
5393;SDS011;2720;52.396;10.064;2022-10-04T12:37:19;6.53;;;1.47;;
5393;SDS011;2720;52.396;10.064;2022-10-04T12:39:56;8.10;;;1.30;;
5393;SDS011;2720;52.396;10.064;2022-10-04T12:42:43;5.50;;;2.17;;
5393;SDS011;2720;52.396;10.064;2022-10-04T12:48:21;5.67;;;1.30;;
5393;SDS011;2720;52.396;10.064;2022-10-04T12:50:59;1.37;;;1.27;;
5393;SDS011;2720;52.396;10.064;2022-10-04T12:53:37;2.93;;;1.57;;
5393;SDS011;2720;52.396;10.064;2022-10-04T12:56:13;3.80;;;1.90;;
5393;SDS011;2720;52.396;10.064;2022-10-04T13:01:45;5.73;;;1.60;;
5393;SDS011;2720;52.396;10.064;2022-10-04T13:04:26;4.87;;;1.50;;
5393;SDS011;2720;52.396;10.064;2022-10-04T13:07:08;6.47;;;2.00;;
5393;SDS011;2720;52.396;10.064;2022-10-04T13:09:56;9.80;;;2.00;;
5393;SDS011;2720;52.396;10.064;2022-10-04T13:12:36;6.67;;;1.87;;
5393;SDS011;2720;52.396;10.064;2022-10-04T13:15:25;8.77;;;1.87;;
5393;SDS011;2720;52.396;10.064;2022-10-04T13:17:59;2.97;;;1.80;;
5393;SDS011;2720;52.396;10.064;2022-10-04T13:20:37;6.30;;;1.67;;
5393;SDS011;2720;52.396;10.064;2022-10-04T13:23:13;4.80;;;1.73;;
5393;SDS011;2720;52.396;10.064;2022-10-04T13:26:01;3.57;;;1.60;;
5393;SDS011;2720;52.396;10.064;2022-10-04T13:28:37;18.47;;;2.07;;
5393;SDS011;2720;52.396;10.064;2022-10-04T13:31:12;3.43;;;1.93;;
5393;SDS011;2720;52.396;10.064;2022-10-04T13:33:49;4.00;;;1.90;;
5393;SDS011;2720;52.396;10.064;2022-10-04T13:36:24;9.70;;;2.20;;
5393;SDS011;2720;52.396;10.064;2022-10-04T13:42:11;5.00;;;2.43;;
5393;SDS011;2720;52.396;10.064;2022-10-04T13:44:51;7.67;;;2.00;;
5393;SDS011;2720;52.396;10.064;2022-10-04T13:47:35;6.20;;;1.70;;
5393;SDS011;2720;52.396;10.064;2022-10-04T13:50:24;2.70;;;1.50;;
5393;SDS011;2720;52.396;10.064;2022-10-04T13:53:15;8.17;;;2.57;;
5393;SDS011;2720;52.396;10.064;2022-10-04T13:56:13;5.80;;;2.20;;
5393;SDS011;2720;52.396;10.064;2022-10-04T13:59:06;2.80;;;2.03;;
5393;SDS011;2720;52.396;10.064;2022-10-04T14:08:35;4.80;;;1.80;;
5393;SDS011;2720;52.396;10.064;2022-10-04T14:17:45;3.47;;;1.93;;
5393;SDS011;2720;52.396;10.064;2022-10-04T14:23:45;8.93;;;1.97;;
5393;SDS011;2720;52.396;10.064;2022-10-04T14:26:46;8.27;;;2.40;;
5393;SDS011;2720;52.396;10.064;2022-10-04T14:29:38;6.30;;;1.80;;
5393;SDS011;2720;52.396;10.064;2022-10-04T14:35:16;3.90;;;1.80;;
5393;SDS011;2720;52.396;10.064;2022-10-04T14:37:56;4.40;;;2.00;;
5393;SDS011;2720;52.396;10.064;2022-10-04T14:40:54;15.47;;;2.80;;
5393;SDS011;2720;52.396;10.064;2022-10-04T14:43:55;3.37;;;2.20;;
5393;SDS011;2720;52.396;10.064;2022-10-04T14:46:42;6.63;;;1.80;;
5393;SDS011;2720;52.396;10.064;2022-10-04T14:49:21;3.53;;;2.00;;
5393;SDS011;2720;52.396;10.064;2022-10-04T14:51:59;8.63;;;2.70;;
5393;SDS011;2720;52.396;10.064;2022-10-04T14:54:41;4.10;;;1.90;;
5393;SDS011;2720;52.396;10.064;2022-10-04T14:57:18;4.93;;;2.47;;
5393;SDS011;2720;52.396;10.064;2022-10-04T15:02:57;16.50;;;5.67;;
5393;SDS011;2720;52.396;10.064;2022-10-04T15:05:40;5.53;;;2.37;;
5393;SDS011;2720;52.396;10.064;2022-10-04T15:08:33;4.20;;;1.97;;
5393;SDS011;2720;52.396;10.064;2022-10-04T15:11:18;4.83;;;2.23;;
5393;SDS011;2720;52.396;10.064;2022-10-04T15:14:05;5.97;;;2.43;;
5393;SDS011;2720;52.396;10.064;2022-10-04T15:16:51;4.33;;;2.30;;
5393;SDS011;2720;52.396;10.064;2022-10-04T15:19:23;5.63;;;2.40;;
5393;SDS011;2720;52.396;10.064;2022-10-04T15:21:59;2.00;;;1.90;;
5393;SDS011;2720;52.396;10.064;2022-10-04T15:24:42;5.50;;;2.30;;
5393;SDS011;2720;52.396;10.064;2022-10-04T15:33:16;6.13;;;2.70;;
5393;SDS011;2720;52.396;10.064;2022-10-04T15:36:02;3.00;;;2.67;;
5393;SDS011;2720;52.396;10.064;2022-10-04T15:38:43;7.40;;;2.93;;
5393;SDS011;2720;52.396;10.064;2022-10-04T15:41:18;2.83;;;2.30;;
5393;SDS011;2720;52.396;10.064;2022-10-04T15:44:13;4.87;;;2.27;;
5393;SDS011;2720;52.396;10.064;2022-10-04T15:47:08;13.10;;;2.40;;
5393;SDS011;2720;52.396;10.064;2022-10-04T15:49:46;5.67;;;2.17;;
5393;SDS011;2720;52.396;10.064;2022-10-04T15:55:19;3.50;;;2.03;;
5393;SDS011;2720;52.396;10.064;2022-10-04T15:58:14;6.87;;;1.97;;
5393;SDS011;2720;52.396;10.064;2022-10-04T16:04:11;9.00;;;3.37;;
5393;SDS011;2720;52.396;10.064;2022-10-04T16:06:45;3.30;;;2.30;;
5393;SDS011;2720;52.396;10.064;2022-10-04T16:09:20;5.33;;;2.80;;
5393;SDS011;2720;52.396;10.064;2022-10-04T16:12:00;4.40;;;2.50;;
5393;SDS011;2720;52.396;10.064;2022-10-04T16:17:42;5.10;;;2.40;;
5393;SDS011;2720;52.396;10.064;2022-10-04T16:20:28;5.90;;;2.27;;
5393;SDS011;2720;52.396;10.064;2022-10-04T16:25:52;5.47;;;2.50;;
5393;SDS011;2720;52.396;10.064;2022-10-04T16:31:43;4.90;;;2.20;;
5393;SDS011;2720;52.396;10.064;2022-10-04T16:34:16;8.40;;;2.23;;
5393;SDS011;2720;52.396;10.064;2022-10-04T16:37:02;5.37;;;2.60;;
5393;SDS011;2720;52.396;10.064;2022-10-04T16:39:47;8.03;;;2.50;;
5393;SDS011;2720;52.396;10.064;2022-10-04T16:42:38;7.00;;;2.63;;
5393;SDS011;2720;52.396;10.064;2022-10-04T16:45:31;4.37;;;2.43;;
5393;SDS011;2720;52.396;10.064;2022-10-04T16:48:26;9.67;;;2.70;;
5393;SDS011;2720;52.396;10.064;2022-10-04T16:53:57;4.23;;;2.77;;
5393;SDS011;2720;52.396;10.064;2022-10-04T16:59:44;7.90;;;2.73;;
5393;SDS011;2720;52.396;10.064;2022-10-04T17:05:18;10.23;;;2.47;;
5393;SDS011;2720;52.396;10.064;2022-10-04T17:07:57;2.53;;;1.60;;
5393;SDS011;2720;52.396;10.064;2022-10-04T17:10:44;7.10;;;3.10;;
5393;SDS011;2720;52.396;10.064;2022-10-04T17:13:33;5.90;;;2.33;;
5393;SDS011;2720;52.396;10.064;2022-10-04T17:16:09;3.83;;;2.87;;
5393;SDS011;2720;52.396;10.064;2022-10-04T17:18:40;3.90;;;2.30;;
5393;SDS011;2720;52.396;10.064;2022-10-04T17:21:21;4.70;;;2.70;;
5393;SDS011;2720;52.396;10.064;2022-10-04T17:23:58;6.30;;;2.90;;
5393;SDS011;2720;52.396;10.064;2022-10-04T17:26:41;6.80;;;3.90;;
5393;SDS011;2720;52.396;10.064;2022-10-04T17:32:10;4.67;;;3.80;;
5393;SDS011;2720;52.396;10.064;2022-10-04T17:35:03;8.67;;;3.33;;
5393;SDS011;2720;52.396;10.064;2022-10-04T17:37:43;7.97;;;3.63;;
5393;SDS011;2720;52.396;10.064;2022-10-04T17:43:12;11.00;;;3.97;;
5393;SDS011;2720;52.396;10.064;2022-10-04T17:45:49;7.07;;;4.07;;
5393;SDS011;2720;52.396;10.064;2022-10-04T17:48:25;6.20;;;2.77;;
5393;SDS011;2720;52.396;10.064;2022-10-04T17:51:26;6.30;;;3.77;;
5393;SDS011;2720;52.396;10.064;2022-10-04T17:54:17;9.50;;;3.10;;
5393;SDS011;2720;52.396;10.064;2022-10-04T17:57:09;6.90;;;4.20;;
5393;SDS011;2720;52.396;10.064;2022-10-04T17:59:48;8.50;;;4.10;;
5393;SDS011;2720;52.396;10.064;2022-10-04T18:02:21;6.77;;;3.77;;
5393;SDS011;2720;52.396;10.064;2022-10-04T18:04:53;7.00;;;3.33;;
5393;SDS011;2720;52.396;10.064;2022-10-04T18:07:23;8.27;;;3.77;;
5393;SDS011;2720;52.396;10.064;2022-10-04T18:09:54;6.90;;;3.53;;
5393;SDS011;2720;52.396;10.064;2022-10-04T18:12:25;7.13;;;3.37;;
5393;SDS011;2720;52.396;10.064;2022-10-04T18:14:58;12.73;;;3.70;;
5393;SDS011;2720;52.396;10.064;2022-10-04T18:17:33;5.77;;;3.53;;
5393;SDS011;2720;52.396;10.064;2022-10-04T18:20:15;6.10;;;3.40;;
5393;SDS011;2720;52.396;10.064;2022-10-04T18:22:55;8.03;;;3.90;;
5393;SDS011;2720;52.396;10.064;2022-10-04T18:25:25;9.63;;;4.60;;
5393;SDS011;2720;52.396;10.064;2022-10-04T18:27:59;11.07;;;4.80;;
5393;SDS011;2720;52.396;10.064;2022-10-04T18:30:32;6.47;;;3.60;;